Time;durP1;ratioP1;P1;durP2;ratioP2;P2;SDS_P1;SDS_P2;PMS_P1;PMS_P2;Temp;Humidity;BMP_temperature;BMP_pressure;BME280_temperature;BME280_humidity;BME280_pressure;Samples;Min_cycle;Max_cycle;Signal;HPM_P1;HPM_P2
2024/05/03 00:00:42;;;;;;;38.47;27.90;;;15.40;99.90;;;-145.48;100.00;99558.19;5050962;28;20176;-79
2024/05/03 00:03:08;;;;;;;48.40;30.17;;;15.40;99.90;;;-145.48;100.00;99547.78;5067238;28;20521;-79
2024/05/03 00:05:34;;;;;;;38.27;26.03;;;15.40;99.90;;;-145.48;100.00;99524.91;5033896;28;20275;-79
2024/05/03 00:08:00;;;;;;;36.07;25.43;;;15.40;99.90;;;-145.48;100.00;99558.19;5033726;28;20691;-79
2024/05/03 00:10:25;;;;;;;37.83;26.90;;;15.40;99.90;;;-145.48;100.00;99562.38;5042838;28;20679;-79
2024/05/03 00:12:51;;;;;;;37.30;26.20;;;15.40;99.90;;;-145.48;100.00;99545.72;5056768;28;20262;-79
2024/05/03 00:15:17;;;;;;;34.50;26.47;;;15.40;99.90;;;-145.48;100.00;99549.88;5056768;28;20699;-79
2024/05/03 00:17:43;;;;;;;31.07;22.73;;;15.40;99.90;;;-145.48;100.00;99529.06;5073309;28;20219;-79
2024/05/03 00:20:09;;;;;;;37.83;24.93;;;15.50;99.90;;;-145.48;100.00;99545.72;5090445;28;20526;-79
2024/05/03 00:22:34;;;;;;;31.00;24.33;;;15.40;99.90;;;-145.48;100.00;99568.59;5056380;28;20210;-79
2024/05/03 00:25:00;;;;;;;34.43;24.20;;;15.40;99.90;;;-145.48;100.00;99554.03;5056659;28;20528;-79
2024/05/03 00:27:26;;;;;;;30.33;22.23;;;15.40;99.90;;;-145.48;100.00;99574.84;5073396;28;20186;-79
2024/05/03 00:29:52;;;;;;;31.27;20.80;;;15.30;99.90;;;-145.48;100.00;99576.94;5056641;28;20719;-77
2024/05/03 00:32:18;;;;;;;26.90;20.33;;;15.30;99.90;;;-145.48;100.00;99564.44;5056513;28;20197;-78
2024/05/03 00:34:44;;;;;;;24.23;18.50;;;15.30;99.90;;;-145.48;100.00;99581.09;5056360;28;20282;-79
2024/05/03 00:37:09;;;;;;;25.27;18.23;;;15.30;99.90;;;-145.48;100.00;99579.00;5056274;28;20544;-78
2024/05/03 00:39:35;;;;;;;25.23;18.13;;;15.30;99.90;;;-145.48;100.00;99543.63;5039715;28;20278;-78
2024/05/03 00:42:01;;;;;;;25.33;18.77;;;15.30;99.90;;;-145.48;100.00;99572.78;5056517;28;20183;-77
2024/05/03 00:44:27;;;;;;;22.40;16.63;;;15.20;99.90;;;-145.48;100.00;99572.78;5056364;28;20267;-78
2024/05/03 00:46:54;;;;;;;22.30;16.67;;;15.20;99.90;;;-145.48;100.00;99599.81;5056335;28;20654;-78
2024/05/03 00:49:21;;;;;;;26.40;18.47;;;15.20;99.90;;;-145.48;100.00;99570.69;5072682;28;20202;-78
2024/05/03 00:51:48;;;;;;;22.80;16.87;;;15.30;99.90;;;-145.48;100.00;99560.28;5038891;28;20484;-78
2024/05/03 00:54:18;;;;;;;22.13;17.00;;;15.20;99.90;;;-145.48;100.00;99599.81;5039760;28;20945;-78
2024/05/03 00:56:51;;;;;;;23.53;17.07;;;15.20;99.90;;;-145.48;100.00;99587.34;5073234;28;20526;-77
2024/05/03 00:59:19;;;;;;;22.90;16.37;;;15.20;99.90;;;-145.48;100.00;99587.34;5039745;28;20430;-77
2024/05/03 01:01:45;;;;;;;25.67;18.03;;;15.20;99.90;;;-145.48;100.00;99591.50;5043169;28;20742;-78
2024/05/03 01:04:12;;;;;;;22.07;16.00;;;15.20;99.90;;;-145.48;100.00;99566.53;5056665;28;20429;-78
2024/05/03 01:06:38;;;;;;;22.60;16.67;;;15.30;99.90;;;-145.48;100.00;99570.69;5055912;28;20429;-78
2024/05/03 01:09:04;;;;;;;22.63;17.60;;;15.30;99.90;;;-145.48;100.00;99566.53;5072611;28;20930;-78
2024/05/03 01:11:30;;;;;;;23.67;17.63;;;15.30;99.90;;;-145.48;100.00;99562.38;5072601;28;20194;-78
2024/05/03 01:13:56;;;;;;;30.83;19.70;;;15.30;99.90;;;-145.48;100.00;99574.84;5055662;28;20194;-79
2024/05/03 01:16:22;;;;;;;30.03;18.90;;;15.30;99.90;;;-145.48;100.00;99549.88;5072643;28;20469;-79
2024/05/03 01:18:47;;;;;;;24.60;18.13;;;15.20;99.90;;;-145.48;100.00;99585.25;5072237;28;20219;-78
2024/05/03 01:21:13;;;;;;;24.77;18.80;;;15.20;99.90;;;-145.48;100.00;99574.84;5052387;28;20671;-78
2024/05/03 01:23:41;;;;;;;26.87;18.10;;;15.20;99.90;;;-145.48;100.00;99603.97;5035679;28;20593;-78
2024/05/03 01:26:07;;;;;;;28.03;17.23;;;15.20;99.90;;;-145.48;100.00;99599.81;5035920;28;20175;-78
2024/05/03 01:28:33;;;;;;;26.57;17.30;;;15.10;99.90;;;-145.48;100.00;99572.78;5018999;28;20426;-78
2024/05/03 01:30:58;;;;;;;27.20;19.03;;;15.20;99.90;;;-145.48;100.00;99576.94;5018930;28;20175;-79
2024/05/03 01:33:24;;;;;;;26.73;18.10;;;15.10;99.90;;;-145.48;100.00;99599.81;5035657;28;20191;-78
2024/05/03 01:35:50;;;;;;;26.23;18.80;;;15.20;99.90;;;-145.48;100.00;99610.22;5035363;28;20651;-79
2024/05/03 01:38:16;;;;;;;27.37;18.73;;;15.10;99.90;;;-145.48;100.00;99579.00;5019094;28;20333;-78
2024/05/03 01:40:43;;;;;;;27.63;19.00;;;15.10;99.90;;;-145.48;100.00;99603.97;5034229;28;20194;-78
2024/05/03 01:43:09;;;;;;;25.47;19.60;;;15.10;99.90;;;-145.48;100.00;99599.81;5055594;28;20175;-79
2024/05/03 01:45:34;;;;;;;30.57;19.40;;;15.10;99.90;;;-145.48;100.00;99595.66;5055650;28;20430;-79
2024/05/03 01:48:00;;;;;;;31.00;19.80;;;15.10;99.90;;;-145.48;100.00;99583.16;5055509;28;20187;-79
2024/05/03 01:50:26;;;;;;;30.20;19.63;;;15.10;99.90;;;-145.48;100.00;99635.19;5038671;28;20227;-79
2024/05/03 01:52:52;;;;;;;24.60;18.30;;;15.10;99.90;;;-145.48;100.00;99614.38;5051916;28;20569;-79
2024/05/03 01:55:18;;;;;;;29.87;19.30;;;15.10;99.90;;;-145.48;100.00;99591.50;5034714;28;20207;-79
2024/05/03 01:57:43;;;;;;;28.73;17.57;;;15.10;99.90;;;-145.48;100.00;99614.38;5018806;28;20206;-79
2024/05/03 02:00:10;;;;;;;34.90;20.23;;;15.10;99.90;;;-145.48;100.00;99635.19;5035269;28;20657;-79
2024/05/03 02:02:36;;;;;;;31.63;20.47;;;15.10;99.90;;;-145.48;100.00;99587.34;5034969;28;20230;-79
2024/05/03 02:05:02;;;;;;;32.30;20.77;;;15.00;99.90;;;-145.48;100.00;99633.13;5017691;28;20476;-79
2024/05/03 02:07:27;;;;;;;33.20;19.33;;;15.00;99.90;;;-145.48;100.00;99595.66;5018496;28;20262;-79
2024/05/03 02:09:53;;;;;;;29.57;20.83;;;15.00;99.90;;;-145.48;100.00;99610.22;5026781;28;20190;-79
2024/05/03 02:12:19;;;;;;;31.93;22.47;;;15.10;99.90;;;-145.48;100.00;99614.38;5088091;28;20191;-79
2024/05/03 02:14:46;;;;;;;27.47;21.50;;;15.00;99.90;;;-145.48;100.00;99622.72;5071649;28;20225;-79
2024/05/03 02:17:12;;;;;;;34.13;23.67;;;15.00;99.90;;;-145.48;100.00;99633.13;5068713;28;20543;-79
2024/05/03 02:19:38;;;;;;;42.73;28.37;;;15.00;99.90;;;-145.48;100.00;99574.84;5018956;28;20430;-79
2024/05/03 02:22:04;;;;;;;44.50;29.07;;;14.90;99.90;;;-145.48;100.00;99645.59;5036294;28;20191;-79
2024/05/03 02:24:29;;;;;;;46.90;28.57;;;14.90;99.90;;;-145.48;100.00;99603.97;5036945;28;20204;-80
2024/05/03 02:26:55;;;;;;;42.93;29.17;;;14.90;99.90;;;-145.48;100.00;99599.81;5018317;28;20569;-79
2024/05/03 02:29:21;;;;;;;53.30;29.83;;;14.80;99.90;;;-145.48;100.00;99639.38;5018428;28;20720;-79
2024/05/03 02:31:47;;;;;;;55.40;35.20;;;14.90;99.90;;;-145.48;100.00;99624.78;5051277;28;20245;-79
2024/05/03 02:34:12;;;;;;;54.90;32.73;;;14.70;99.90;;;-145.48;100.00;99647.69;5034596;28;20264;-79
2024/05/03 02:36:38;;;;;;;52.13;35.07;;;14.60;99.90;;;-145.48;100.00;99631.03;5034464;28;20733;-78
2024/05/03 02:39:04;;;;;;;53.97;32.43;;;14.70;99.90;;;-145.48;100.00;99637.28;5067832;28;20183;-79
2024/05/03 02:41:30;;;;;;;54.87;30.80;;;14.60;99.90;;;-145.48;100.00;99633.13;5051171;28;20230;-79
2024/05/03 02:43:56;;;;;;;49.77;32.63;;;14.50;99.90;;;-145.48;100.00;99674.75;5018410;28;20190;-79
2024/05/03 02:46:21;;;;;;;51.97;32.03;;;14.40;99.90;;;-145.48;100.00;99658.09;5051194;28;20183;-80
2024/05/03 02:48:47;;;;;;;43.40;29.33;;;14.50;99.90;;;-145.48;100.00;99695.56;5051376;28;20225;-79
2024/05/03 02:51:13;;;;;;;49.70;32.50;;;14.50;99.90;;;-145.48;100.00;99691.41;5047935;28;20201;-80
2024/05/03 02:53:39;;;;;;;40.37;28.40;;;14.50;99.90;;;-145.48;100.00;99651.84;4998805;28;20216;-78
2024/05/03 02:56:06;;;;;;;46.83;29.47;;;14.50;99.90;;;-145.48;100.00;99674.75;5047645;28;20200;-79
2024/05/03 02:58:35;;;;;;;57.03;31.83;;;14.50;99.90;;;-145.48;100.00;99678.91;5014718;28;20176;-80
2024/05/03 03:01:06;;;;;;;49.10;31.43;;;14.40;99.90;;;-145.48;100.00;99608.16;5047574;28;20434;-79
2024/05/03 03:03:32;;;;;;;49.57;29.20;;;14.50;99.90;;;-145.48;100.00;99647.69;5030634;28;20787;-80
2024/05/03 03:06:03;;;;;;;53.33;30.03;;;14.60;99.90;;;-145.48;100.00;99678.91;5047507;28;20970;-80
2024/05/03 03:08:28;;;;;;;43.97;28.67;;;14.60;99.90;;;-145.48;100.00;99649.78;5030852;28;20431;-79
2024/05/03 03:10:54;;;;;;;45.33;30.33;;;14.60;99.90;;;-145.48;100.00;99622.72;5034012;28;20445;-80
2024/05/03 03:13:20;;;;;;;42.63;28.23;;;14.60;99.90;;;-145.48;100.00;99656.00;5034298;28;20184;-79
2024/05/03 03:15:46;;;;;;;46.67;26.23;;;14.50;99.90;;;-145.48;100.00;99683.06;5050365;28;20229;-79
2024/05/03 03:18:12;;;;;;;42.60;28.00;;;14.50;99.90;;;-145.48;100.00;99678.91;5045190;28;21004;-80
2024/05/03 03:20:38;;;;;;;39.27;26.63;;;14.40;99.90;;;-145.48;100.00;99660.19;5070738;28;20545;-80
2024/05/03 03:23:05;;;;;;;40.47;27.57;;;14.50;99.90;;;-145.48;100.00;99635.19;5037547;28;20255;-79
2024/05/03 03:25:31;;;;;;;43.10;28.83;;;14.40;99.90;;;-145.48;100.00;99699.72;5021370;28;20652;-79
2024/05/03 03:27:57;;;;;;;44.23;30.40;;;14.30;99.90;;;-145.48;100.00;99676.81;5037422;28;20425;-79
2024/05/03 03:30:24;;;;;;;42.83;28.80;;;14.30;99.90;;;-145.48;100.00;99678.91;5054051;28;20207;-80
2024/05/03 03:32:51;;;;;;;49.53;28.70;;;14.30;99.90;;;-145.48;100.00;99668.50;5037946;28;20713;-80
2024/05/03 03:35:16;;;;;;;41.27;27.13;;;14.30;99.90;;;-145.48;100.00;99678.91;5037303;28;20518;-80
2024/05/03 03:37:42;;;;;;;38.97;25.77;;;14.30;99.90;;;-145.48;100.00;99683.06;5053962;28;20424;-80
2024/05/03 03:40:08;;;;;;;42.03;27.17;;;14.30;99.90;;;-145.48;100.00;99703.88;5070530;28;20487;-80
2024/05/03 03:42:35;;;;;;;36.27;23.80;;;14.20;99.90;;;-145.48;100.00;99720.53;5053822;28;20183;-79
2024/05/03 03:45:01;;;;;;;36.43;23.93;;;14.20;99.90;;;-145.48;100.00;99683.06;5070434;28;20495;-79
2024/05/03 03:47:28;;;;;;;36.67;24.67;;;14.20;99.90;;;-145.48;100.00;99683.06;5037291;28;20473;-79
2024/05/03 03:49:54;;;;;;;39.07;26.17;;;14.10;99.90;;;-145.48;100.00;99710.13;5070486;28;20429;-79
2024/05/03 03:52:21;;;;;;;37.47;25.10;;;14.10;99.90;;;-145.48;100.00;99720.53;5066929;28;20441;-80
2024/05/03 03:54:47;;;;;;;36.07;22.53;;;14.20;99.90;;;-145.48;100.00;99724.69;5083508;28;20275;-79
2024/05/03 03:57:12;;;;;;;39.10;23.40;;;14.10;99.90;;;-145.48;100.00;99708.03;5066535;28;20569;-78
2024/05/03 03:59:38;;;;;;;36.70;22.60;;;14.00;99.90;;;-145.48;100.00;99724.69;5084876;28;20217;-79
2024/05/03 04:02:04;;;;;;;34.33;21.37;;;13.90;99.90;;;-145.48;100.00;99676.81;5083714;28;20195;-79
2024/05/03 04:04:30;;;;;;;31.40;20.80;;;13.90;99.90;;;-145.48;100.00;99689.31;5066891;28;20266;-78
2024/05/03 04:06:56;;;;;;;29.87;20.63;;;13.90;99.90;;;-145.48;100.00;99730.94;5066427;28;20199;-79
2024/05/03 04:09:21;;;;;;;32.23;21.40;;;13.80;99.90;;;-145.48;100.00;99758.00;5069286;28;20218;-78
2024/05/03 04:11:47;;;;;;;37.60;24.83;;;13.80;99.90;;;-145.48;100.00;99728.84;5037196;28;20187;-79
2024/05/03 04:14:13;;;;;;;32.63;20.50;;;13.70;99.90;;;-145.48;100.00;99724.69;5069987;28;20190;-78
2024/05/03 04:16:39;;;;;;;28.77;20.47;;;13.70;99.90;;;-145.48;100.00;99695.56;5069832;28;20754;-79
2024/05/03 04:19:04;;;;;;;32.23;21.73;;;13.70;99.90;;;-145.48;100.00;99737.19;5053265;28;20304;-79
2024/05/03 04:21:30;;;;;;;30.00;20.50;;;13.70;99.90;;;-145.48;100.00;99737.19;5069277;28;20675;-79
2024/05/03 04:23:56;;;;;;;32.83;21.93;;;13.70;99.90;;;-145.48;100.00;99681.00;5036912;28;20217;-80
2024/05/03 04:26:22;;;;;;;28.20;18.10;;;13.70;99.90;;;-145.48;100.00;99745.50;5036210;28;20244;-78
2024/05/03 04:28:48;;;;;;;26.07;17.90;;;13.70;99.90;;;-145.48;100.00;99689.31;5039834;28;20685;-79
2024/05/03 04:31:14;;;;;;;27.20;16.67;;;13.70;99.90;;;-145.48;100.00;99718.44;5056575;28;20191;-79
2024/05/03 04:33:44;;;;;;;25.80;18.07;;;13.70;99.90;;;-145.48;100.00;99764.25;5039809;28;20999;-79
2024/05/03 04:36:09;;;;;;;23.23;16.20;;;13.70;99.90;;;-145.48;100.00;99751.75;5039849;28;20265;-79
2024/05/03 04:38:36;;;;;;;23.57;16.63;;;13.70;99.90;;;-145.48;100.00;99762.16;5056566;28;20438;-78
2024/05/03 04:41:01;;;;;;;22.07;16.80;;;13.70;99.90;;;-145.48;100.00;99772.56;5041325;28;20441;-79
2024/05/03 04:43:29;;;;;;;24.50;17.03;;;13.60;99.90;;;-145.48;100.00;99758.00;5056460;28;20210;-79
2024/05/03 04:45:55;;;;;;;25.30;15.90;;;13.60;99.90;;;-145.48;100.00;99743.44;5072962;28;20185;-79
2024/05/03 04:48:21;;;;;;;24.90;16.70;;;13.60;99.90;;;-145.48;100.00;99728.84;5056270;28;20434;-79
2024/05/03 04:50:47;;;;;;;26.80;17.80;;;13.60;99.90;;;-145.48;100.00;99743.44;5056207;28;20203;-79
2024/05/03 04:53:12;;;;;;;22.80;15.67;;;13.60;99.90;;;-145.48;100.00;99766.31;5056408;28;20182;-78
2024/05/03 04:55:38;;;;;;;23.53;17.33;;;13.60;99.90;;;-145.48;100.00;99737.19;5039331;28;20385;-78
2024/05/03 04:58:04;;;;;;;22.10;15.40;;;13.60;99.90;;;-145.48;100.00;99735.09;5076280;28;20178;-79
2024/05/03 05:00:30;;;;;;;23.20;16.87;;;13.60;99.90;;;-145.48;100.00;99764.25;5072633;28;20651;-79
2024/05/03 05:02:59;;;;;;;21.20;15.17;;;13.50;99.90;;;-145.48;100.00;99782.97;5072755;28;20179;-78
2024/05/03 05:05:25;;;;;;;20.80;14.63;;;13.40;99.90;;;-145.48;100.00;99810.03;5039810;28;20182;-78
2024/05/03 05:07:51;;;;;;;19.00;12.87;;;13.40;99.90;;;-145.48;100.00;99780.88;5039287;28;20512;-78
2024/05/03 05:10:17;;;;;;;17.53;14.03;;;13.30;99.90;;;-145.48;100.00;99778.81;5039057;28;20532;-78
2024/05/03 05:12:42;;;;;;;20.00;14.90;;;13.30;99.90;;;-145.48;100.00;99787.13;5072521;28;20189;-78
2024/05/03 05:15:08;;;;;;;20.83;14.70;;;13.20;99.90;;;-145.48;100.00;99778.81;5055777;28;20236;-78
2024/05/03 05:17:34;;;;;;;21.83;13.83;;;13.20;99.90;;;-145.48;100.00;99799.63;5072151;28;20629;-78
2024/05/03 05:20:00;;;;;;;17.80;13.43;;;13.20;99.90;;;-145.48;100.00;99791.28;5072321;28;20188;-78
2024/05/03 05:22:26;;;;;;;17.07;12.47;;;13.20;99.90;;;-145.48;100.00;99791.28;5069170;28;20187;-79
2024/05/03 05:24:53;;;;;;;15.27;11.27;;;13.10;99.90;;;-145.48;100.00;99807.94;5052007;28;20453;-77
2024/05/03 05:27:19;;;;;;;14.43;10.63;;;13.20;99.90;;;-145.48;100.00;99828.75;5068910;28;20187;-78
2024/05/03 05:29:46;;;;;;;15.27;11.77;;;13.10;99.90;;;-145.48;100.00;99812.09;5068869;28;20516;-78
2024/05/03 05:32:12;;;;;;;21.93;12.27;;;13.10;99.90;;;-145.48;100.00;99782.97;5018911;28;20422;-79
2024/05/03 05:34:39;;;;;;;14.23;10.50;;;13.10;99.90;;;-145.48;100.00;99810.03;5035300;28;20429;-78
2024/05/03 05:37:05;;;;;;;12.90;10.40;;;13.00;99.90;;;-145.48;100.00;99791.28;5068519;28;20222;-78
2024/05/03 05:39:32;;;;;;;14.60;10.50;;;13.10;99.90;;;-145.48;100.00;99762.16;5069609;28;20827;-79
2024/05/03 05:41:58;;;;;;;13.20;9.53;;;13.10;99.90;;;-145.48;100.00;99785.06;5055318;28;20187;-79
2024/05/03 05:44:25;;;;;;;10.40;8.07;;;13.10;99.90;;;-145.48;100.00;99830.84;5038534;28;20824;-77
2024/05/03 05:46:50;;;;;;;9.97;8.40;;;13.10;99.90;;;-145.48;100.00;99803.78;5071703;28;20218;-79
2024/05/03 05:49:16;;;;;;;8.93;6.63;;;13.10;99.90;;;-145.48;100.00;99820.44;5055282;28;20834;-78
2024/05/03 05:51:42;;;;;;;10.67;7.43;;;13.10;99.90;;;-145.48;100.00;99778.81;5068418;28;20525;-77
2024/05/03 05:54:11;;;;;;;9.10;6.03;;;13.10;99.90;;;-145.48;100.00;99774.66;5068789;28;20179;-78
2024/05/03 05:56:39;;;;;;;8.60;7.70;;;13.20;99.90;;;-145.48;100.00;99845.41;5067388;28;20216;-77
2024/05/03 05:59:06;;;;;;;7.63;6.70;;;13.10;99.90;;;-145.48;100.00;99816.28;5051564;28;20436;-78
2024/05/03 06:01:33;;;;;;;5.93;5.33;;;13.10;99.90;;;-145.48;100.00;99780.88;5051350;28;20528;-79
2024/05/03 06:04:02;;;;;;;6.37;5.30;;;13.10;99.90;;;-145.48;100.00;99845.41;5067940;28;20478;-77
2024/05/03 06:06:29;;;;;;;5.03;4.53;;;13.00;99.90;;;-145.48;100.00;99824.59;5018257;28;20426;-77
2024/05/03 06:08:59;;;;;;;5.00;4.27;;;13.00;99.90;;;-145.48;100.00;99816.28;5052458;28;20445;-77
2024/05/03 06:11:30;;;;;;;6.13;4.67;;;12.90;99.90;;;-145.48;100.00;99776.72;5054951;28;20451;-78
2024/05/03 06:13:59;;;;;;;5.50;4.23;;;13.00;99.90;;;-145.48;100.00;99812.09;5088772;28;20475;-80
2024/05/03 06:16:25;;;;;;;4.37;3.97;;;12.90;99.90;;;-145.48;100.00;99816.28;5071822;28;20616;-78
2024/05/03 06:18:53;;;;;;;4.30;3.90;;;12.90;99.90;;;-145.48;100.00;99820.44;5071528;28;20934;-78
2024/05/03 06:21:19;;;;;;;4.77;4.37;;;12.90;99.90;;;-145.48;100.00;99816.28;5056842;28;20175;-78
2024/05/03 06:23:45;;;;;;;4.40;4.00;;;12.90;99.90;;;-145.48;100.00;99849.56;5071746;28;20988;-78
2024/05/03 06:26:11;;;;;;;4.60;4.00;;;12.90;99.90;;;-145.48;100.00;99857.91;5088229;28;20433;-77
2024/05/03 06:28:36;;;;;;;5.50;4.07;;;12.90;99.90;;;-145.48;100.00;99795.47;5055003;28;20183;-78
2024/05/03 06:31:02;;;;;;;5.77;4.60;;;13.00;99.90;;;-145.48;100.00;99807.94;5055679;28;20682;-78
2024/05/03 06:33:28;;;;;;;6.20;5.10;;;13.00;99.90;;;-145.48;100.00;99778.81;5054767;28;20494;-79
2024/05/03 06:35:54;;;;;;;6.53;4.90;;;13.00;99.90;;;-145.48;100.00;99803.78;5071381;28;20206;-78
2024/05/03 06:38:20;;;;;;;6.73;4.93;;;13.00;99.90;;;-145.48;100.00;99828.75;5038423;28;20198;-79
2024/05/03 06:40:48;;;;;;;5.20;4.70;;;12.90;99.90;;;-145.48;100.00;99791.28;5054567;28;20425;-79
2024/05/03 06:43:14;;;;;;;5.40;4.80;;;12.90;99.90;;;-145.48;100.00;99795.47;5089740;28;20429;-79
2024/05/03 06:45:40;;;;;;;4.43;4.00;;;13.00;99.90;;;-145.48;100.00;99837.09;5071265;28;20429;-78
2024/05/03 06:48:06;;;;;;;6.43;4.57;;;12.90;99.90;;;-145.48;100.00;99835.00;5070471;28;20536;-78
2024/05/03 06:50:34;;;;;;;4.80;4.40;;;13.00;99.90;;;-145.48;100.00;99768.41;5070186;28;20374;-78
2024/05/03 06:53:02;;;;;;;5.57;4.10;;;13.00;99.90;;;-145.48;100.00;99807.94;5070734;28;20959;-78
2024/05/03 06:55:28;;;;;;;4.83;4.43;;;13.00;99.90;;;-145.48;100.00;99830.84;5038201;28;20490;-79
2024/05/03 06:57:54;;;;;;;5.03;4.30;;;13.00;99.90;;;-145.48;100.00;99791.28;5071018;28;20425;-80
2024/05/03 07:00:21;;;;;;;5.93;4.07;;;13.00;99.90;;;-145.48;100.00;99830.84;5054797;28;20851;-79
2024/05/03 07:02:46;;;;;;;4.33;3.93;;;13.00;99.90;;;-145.48;100.00;99845.41;5071428;28;20217;-78
2024/05/03 07:05:12;;;;;;;4.80;4.07;;;13.00;99.90;;;-145.48;100.00;99845.41;5090218;28;20527;-78
2024/05/03 07:07:38;;;;;;;5.00;4.60;;;13.00;99.90;;;-145.48;100.00;99895.34;5072550;28;20585;-78
2024/05/03 07:10:04;;;;;;;3.97;3.50;;;12.90;99.90;;;-145.48;100.00;99812.09;5070509;28;20182;-78
2024/05/03 07:12:30;;;;;;;5.30;3.70;;;13.50;99.90;;;-145.48;100.00;99853.75;5054925;28;20301;-79
2024/05/03 07:14:58;;;;;;;4.50;4.10;;;12.90;99.90;;;-145.48;100.00;99828.75;5053790;28;20461;-79
2024/05/03 07:17:24;;;;;;;4.43;3.80;;;12.90;99.90;;;-145.48;100.00;99807.94;5037450;28;20238;-77
2024/05/03 07:19:50;;;;;;;4.57;4.00;;;12.90;99.90;;;-145.48;100.00;99847.50;5071294;28;20483;-79
2024/05/03 07:22:16;;;;;;;7.53;6.53;;;12.90;99.90;;;-145.48;100.00;99801.69;5038503;28;20670;-79
2024/05/03 07:24:42;;;;;;;5.37;4.87;;;13.00;99.90;;;-145.48;100.00;99816.28;5070922;28;20433;-79
2024/05/03 07:27:08;;;;;;;4.30;3.90;;;13.00;99.90;;;-145.48;100.00;99795.47;5054225;28;20448;-79
2024/05/03 07:29:35;;;;;;;5.73;4.70;;;12.80;99.90;;;-145.48;100.00;99824.59;5053917;28;20789;-79
2024/05/03 07:32:05;;;;;;;4.40;4.00;;;13.00;99.90;;;-145.48;100.00;99826.69;5073355;28;20179;-79
2024/05/03 07:34:31;;;;;;;4.20;3.80;;;13.00;99.90;;;-145.48;100.00;99816.28;5055958;28;20441;-78
2024/05/03 07:36:57;;;;;;;4.23;3.83;;;13.00;99.90;;;-145.48;100.00;99866.22;5054972;28;20472;-79
2024/05/03 07:39:23;;;;;;;5.83;4.47;;;12.90;99.90;;;-145.48;100.00;99843.31;5070894;28;20187;-80
2024/05/03 07:41:50;;;;;;;6.53;5.93;;;12.90;99.90;;;-145.48;100.00;99853.75;5054380;28;20433;-79
2024/05/03 07:44:16;;;;;;;61.43;42.97;;;12.90;99.90;;;-145.48;100.00;99828.75;5053610;28;20178;-78
2024/05/03 07:46:42;;;;;;;9.00;6.90;;;12.90;99.90;;;-145.48;100.00;99826.69;5054533;28;20795;-72
2024/05/03 07:49:07;;;;;;;4.10;3.73;;;12.90;99.90;;;-145.48;100.00;99822.50;5053171;28;20179;-72
2024/05/03 07:51:35;;;;;;;3.90;3.47;;;12.90;99.90;;;-145.48;100.00;99807.94;5032535;28;20434;-80
2024/05/03 07:54:01;;;;;;;3.00;2.80;;;12.90;99.90;;;-145.48;100.00;99845.41;5054928;28;20178;-79
2024/05/03 07:56:27;;;;;;;4.13;3.80;;;12.90;99.90;;;-145.48;100.00;99859.97;5054956;28;20477;-81
2024/05/03 07:58:53;;;;;;;4.13;3.73;;;12.90;99.90;;;-145.48;100.00;99843.31;5053285;28;20210;-78
2024/05/03 08:01:19;;;;;;;5.40;3.17;;;12.90;99.90;;;-145.48;100.00;99791.28;5054286;28;20469;-81
2024/05/03 08:03:45;;;;;;;4.70;3.90;;;12.80;99.90;;;-145.48;100.00;99826.69;5073969;28;20206;-80
2024/05/03 08:06:11;;;;;;;4.00;3.53;;;12.80;99.90;;;-145.48;100.00;99812.09;5058848;28;20559;-79
2024/05/03 08:08:36;;;;;;;4.23;3.90;;;12.70;99.90;;;-145.48;100.00;99841.25;5041680;28;20189;-79
2024/05/03 08:11:03;;;;;;;4.43;3.60;;;12.70;99.90;;;-145.48;100.00;99862.06;5057307;28;20183;-79
2024/05/03 08:13:29;;;;;;;4.33;3.73;;;12.70;99.90;;;-145.48;100.00;99868.31;5057392;28;20189;-79
2024/05/03 08:15:55;;;;;;;4.70;4.20;;;12.80;99.90;;;-145.48;100.00;99862.06;5041615;28;20576;-79
2024/05/03 08:18:20;;;;;;;3.60;3.07;;;12.80;99.90;;;-145.48;100.00;99862.06;5041998;28;20226;-79
2024/05/03 08:20:46;;;;;;;4.37;3.80;;;12.80;99.90;;;-145.48;100.00;99843.31;5056453;28;20236;-79
2024/05/03 08:23:12;;;;;;;5.20;3.57;;;12.80;99.90;;;-145.48;100.00;99837.09;5038365;28;20190;-80
2024/05/03 08:25:38;;;;;;;4.27;3.87;;;12.80;99.90;;;-145.48;100.00;99843.31;5054209;28;20532;-80
2024/05/03 08:28:04;;;;;;;4.23;3.50;;;12.70;99.90;;;-145.48;100.00;99830.84;5071086;28;20192;-80
2024/05/03 08:30:33;;;;;;;4.00;3.40;;;12.70;99.90;;;-145.48;100.00;99847.50;5053961;28;20179;-78
2024/05/03 08:33:00;;;;;;;5.70;4.30;;;12.70;99.90;;;-145.48;100.00;99884.97;5070024;28;20230;-79
2024/05/03 08:35:26;;;;;;;6.13;4.10;;;12.70;99.90;;;-145.48;100.00;99868.31;5036842;28;20793;-79
2024/05/03 08:37:52;;;;;;;6.73;4.20;;;12.80;99.90;;;-145.48;100.00;99845.41;5037874;28;20481;-78
2024/05/03 08:40:18;;;;;;;5.53;3.90;;;12.80;99.90;;;-145.48;100.00;99857.91;5040495;28;20214;-79
2024/05/03 08:43:00;;;;;;;6.67;4.07;;;12.80;99.90;;;-145.48;100.00;99841.25;5073296;28;20270;-79
2024/05/03 08:45:35;;;;;;;4.77;3.70;;;12.70;99.90;;;-145.48;100.00;99828.75;5073621;28;20219;-79
2024/05/03 08:48:09;;;;;;;6.93;4.70;;;12.70;99.90;;;-145.48;100.00;99818.34;5056658;28;20424;-78
2024/05/03 08:50:37;;;;;;;5.93;4.10;;;12.70;99.90;;;-145.48;100.00;99853.75;5040705;28;20437;-78
2024/05/03 08:53:10;;;;;;;5.43;4.63;;;12.70;99.90;;;-145.48;100.00;99895.34;5056379;28;20441;-78
2024/05/03 08:55:39;;;;;;;4.30;3.90;;;12.60;99.90;;;-145.48;100.00;99862.06;5056706;28;20851;-79
2024/05/03 08:58:05;;;;;;;5.93;3.90;;;12.60;99.90;;;-145.48;100.00;99884.97;5056441;28;20448;-78
2024/05/03 09:00:33;;;;;;;3.90;3.57;;;12.60;99.90;;;-145.48;100.00;99841.25;5056413;28;20456;-78
2024/05/03 09:03:01;;;;;;;11.57;4.40;;;12.70;99.90;;;-145.48;100.00;99849.56;5056593;28;20520;-77
2024/05/03 09:05:27;;;;;;;5.23;3.60;;;12.60;99.90;;;-145.48;100.00;99820.44;5072853;28;20421;-78
2024/05/03 09:08:04;;;;;;;5.90;4.33;;;12.60;99.90;;;-145.48;100.00;99899.53;5056136;28;20495;-78
2024/05/03 09:10:34;;;;;;;6.40;5.70;;;12.60;99.90;;;-145.48;100.00;99864.13;5045629;28;20517;-78
2024/05/03 09:13:00;;;;;;;8.10;5.30;;;12.60;99.90;;;-145.48;100.00;99857.91;5072338;28;20785;-79
2024/05/03 09:15:26;;;;;;;5.50;5.00;;;12.60;99.90;;;-145.48;100.00;99853.75;5089712;28;20443;-79
2024/05/03 09:17:59;;;;;;;7.17;5.60;;;12.60;99.90;;;-145.48;100.00;99889.13;5072237;28;20556;-78
2024/05/03 09:20:27;;;;;;;6.40;5.80;;;12.60;99.90;;;-145.48;100.00;99891.19;5072494;28;20221;-77
2024/05/03 09:22:55;;;;;;;6.10;5.47;;;12.60;99.90;;;-145.48;100.00;99895.34;5068998;28;20446;-78
2024/05/03 09:25:20;;;;;;;6.53;6.00;;;12.40;99.90;;;-145.48;100.00;99889.13;5068903;28;20488;-78
2024/05/03 09:27:55;;;;;;;6.73;5.13;;;12.40;99.90;;;-145.48;100.00;99843.31;5052055;28;20427;-77
2024/05/03 09:30:21;;;;;;;6.37;4.10;;;12.40;99.90;;;-145.48;100.00;99849.56;5052724;28;20206;-77
2024/05/03 09:32:47;;;;;;;4.43;4.03;;;12.40;99.90;;;-145.48;100.00;99889.13;5068329;28;20636;-78
2024/05/03 09:35:13;;;;;;;6.83;6.13;;;12.30;99.90;;;-145.48;100.00;99891.19;5019490;28;20184;-79
2024/05/03 09:37:40;;;;;;;7.20;4.20;;;12.30;99.90;;;-145.48;100.00;99872.47;5051423;28;20229;-78
2024/05/03 09:40:06;;;;;;;5.40;4.90;;;12.30;99.90;;;-145.48;100.00;99916.19;5046070;28;20187;-78
2024/05/03 09:42:32;;;;;;;5.90;5.30;;;12.30;99.90;;;-145.48;100.00;99874.53;5056320;28;20526;-79
2024/05/03 09:44:58;;;;;;;10.90;4.93;;;12.30;99.90;;;-145.48;100.00;99907.84;5055151;28;20941;-79
2024/05/03 09:47:24;;;;;;;5.37;4.80;;;12.30;99.90;;;-145.48;100.00;99899.53;5056468;28;20179;-78
2024/05/03 09:50:08;;;;;;;6.27;5.00;;;12.20;99.90;;;-145.48;100.00;99901.59;5072853;28;20434;-77